Time,TemperatureF,DewpointF,PressureIn,WindDirection,WindDirectionDegrees,WindSpeedMPH,WindSpeedGustMPH,Humidity,HourlyPrecipIn,Conditions,Clouds,dailyrainin,SoftwareType,DateUTC
2013-01-22 00:02:00,34.1,7.0,30.58,North,9,1.0,6.0,32,0.00,,,0.00,weatherlink.com 1.10,2013-01-22 07:02:00,
2013-01-22 00:17:00,33.9,7.0,30.58,North,360,1.0,7.0,32,0.00,,,0.00,weatherlink.com 1.10,2013-01-22 07:17:00,
2013-01-22 00:32:00,33.2,8.0,30.57,NE,49,1.0,4.0,35,0.00,,,0.00,weatherlink.com 1.10,2013-01-22 07:32:00,
2013-01-22 00:47:00,32.9,9.0,30.57,NE,37,3.0,5.0,36,0.00,,,0.00,weatherlink.com 1.10,2013-01-22 07:47:00,
2013-01-22 01:02:00,32.4,9.0,30.58,NNW,344,2.0,5.0,37,0.00,,,0.00,weatherlink.com 1.10,2013-01-22 08:02:00,
2013-01-22 01:17:00,30.8,10.0,30.58,NE,41,0.0,3.0,42,0.00,,,0.00,weatherlink.com 1.10,2013-01-22 08:17:00,
2013-01-22 01:32:00,29.5,11.0,30.59,North,3,1.0,2.0,46,0.00,,,0.00,weatherlink.com 1.10,2013-01-22 08:32:00,
2013-01-22 01:47:00,29.4,9.0,30.59,North,360,1.0,4.0,43,0.00,,,0.00,weatherlink.com 1.10,2013-01-22 08:47:00,
2013-01-22 02:02:00,29.5,9.0,30.59,NNE,13,0.0,4.0,42,0.00,,,0.00,weatherlink.com 1.10,2013-01-22 09:02:00,
2013-01-22 02:17:00,29.0,9.0,30.61,NNE,16,1.0,4.0,43,0.00,,,0.00,weatherlink.com 1.10,2013-01-22 09:17:00,
2013-01-22 02:32:00,29.2,9.0,30.60,NNE,13,0.0,4.0,43,0.00,,,0.00,weatherlink.com 1.10,2013-01-22 09:32:00,
2013-01-22 02:47:00,29.3,8.0,30.60,NNE,15,2.0,4.0,41,0.00,,,0.00,weatherlink.com 1.10,2013-01-22 09:47:00,
2013-01-22 03:02:00,29.4,8.0,30.60,NE,39,0.0,3.0,40,0.00,,,0.00,weatherlink.com 1.10,2013-01-22 10:02:00,
2013-01-22 03:17:00,29.5,9.0,30.60,NNE,18,0.0,3.0,42,0.00,,,0.00,weatherlink.com 1.10,2013-01-22 10:17:00,
2013-01-22 03:32:00,28.2,9.0,30.60,NNE,26,0.0,2.0,44,0.00,,,0.00,weatherlink.com 1.10,2013-01-22 10:32:00,
2013-01-22 03:47:00,27.5,10.0,30.60,NNW,345,0.0,3.0,48,0.00,,,0.00,weatherlink.com 1.10,2013-01-22 10:47:00,
2013-01-22 04:02:00,26.4,11.0,30.61,NNW,345,1.0,2.0,52,0.00,,,0.00,weatherlink.com 1.10,2013-01-22 11:02:00,
2013-01-22 04:17:00,25.7,11.0,30.61,NNW,345,0.0,-999.0,53,-99.99,,,0.00,weatherlink.com 1.10,2013-01-22 11:17:00,
2013-01-22 04:32:00,26.4,10.0,30.61,NNE,19,0.0,4.0,51,0.00,,,0.00,weatherlink.com 1.10,2013-01-22 11:32:00,
2013-01-22 04:47:00,25.5,11.0,30.62,NNE,29,1.0,3.0,54,0.00,,,0.00,weatherlink.com 1.10,2013-01-22 11:47:00,
2013-01-22 05:18:00,29.5,8.0,30.62,East,83,0.0,4.0,40,0.00,,,0.00,weatherlink.com 1.10,2013-01-22 12:18:00,
2013-01-22 05:33:00,30.4,7.0,30.62,NE,49,0.0,2.0,37,0.00,,,0.00,weatherlink.com 1.10,2013-01-22 12:33:00,
2013-01-22 05:48:00,30.4,8.0,30.63,NNE,32,0.0,6.0,39,0.00,,,0.00,weatherlink.com 1.10,2013-01-22 12:48:00,
2013-01-22 06:03:00,27.4,9.0,30.63,NE,35,0.0,2.0,47,0.00,,,0.00,weatherlink.com 1.10,2013-01-22 13:03:00,
2013-01-22 06:18:00,25.8,8.0,30.63,North,1,0.0,3.0,48,0.00,,,0.00,weatherlink.com 1.10,2013-01-22 13:18:00,
2013-01-22 06:33:00,25.9,9.0,30.63,NNE,22,1.0,3.0,48,0.00,,,0.00,weatherlink.com 1.10,2013-01-22 13:33:00,
2013-01-22 06:48:00,26.5,10.0,30.63,North,357,0.0,2.0,51,0.00,,,0.00,weatherlink.com 1.10,2013-01-22 13:48:00,
2013-01-22 07:03:00,24.1,10.0,30.63,North,357,1.0,3.0,54,0.00,,,0.00,weatherlink.com 1.10,2013-01-22 14:03:00,
2013-01-22 07:18:00,23.7,10.0,30.63,NNE,21,0.0,2.0,55,0.00,,,0.00,weatherlink.com 1.10,2013-01-22 14:18:00,
2013-01-22 07:33:00,25.9,8.0,30.63,NE,55,1.0,3.0,47,0.00,,,0.00,weatherlink.com 1.10,2013-01-22 14:33:00,
2013-01-22 07:48:00,27.5,7.0,30.63,NNE,25,0.0,5.0,42,0.00,,,0.00,weatherlink.com 1.10,2013-01-22 14:48:00,
2013-01-22 08:03:00,28.9,7.0,30.63,NE,39,1.0,5.0,40,0.00,,,0.00,weatherlink.com 1.10,2013-01-22 15:03:00,
2013-01-22 08:18:00,29.5,8.0,30.63,NE,46,0.0,3.0,40,0.00,,,0.00,weatherlink.com 1.10,2013-01-22 15:18:00,
2013-01-22 08:33:00,31.0,7.0,30.64,NE,40,0.0,4.0,37,0.00,,,0.00,weatherlink.com 1.10,2013-01-22 15:33:00,
2013-01-22 08:48:00,33.3,7.0,30.64,North,5,0.0,4.0,33,0.00,,,0.00,weatherlink.com 1.10,2013-01-22 15:48:00,
2013-01-22 09:03:00,36.3,7.0,30.65,NNE,30,1.0,4.0,30,0.00,,,0.00,weatherlink.com 1.10,2013-01-22 16:03:00,
2013-01-22 09:18:00,39.1,8.0,30.65,NNE,25,2.0,5.0,28,0.00,,,0.00,weatherlink.com 1.10,2013-01-22 16:18:00,
2013-01-22 09:33:00,42.3,9.0,30.65,NNE,32,1.0,4.0,25,0.00,,,0.00,weatherlink.com 1.10,2013-01-22 16:33:00,
2013-01-22 09:48:00,44.8,10.0,30.65,North,353,0.0,3.0,24,0.00,,,0.00,weatherlink.com 1.10,2013-01-22 16:48:00,
2013-01-22 10:03:00,47.2,10.0,30.65,North,354,0.0,3.0,22,0.00,,,0.00,weatherlink.com 1.10,2013-01-22 17:03:00,
2013-01-22 10:18:00,49.1,9.0,30.66,NNE,28,2.0,7.0,20,0.00,,,0.00,weatherlink.com 1.10,2013-01-22 17:18:00,
2013-01-22 10:33:00,50.2,9.0,30.66,NNW,343,0.0,4.0,19,0.00,,,0.00,weatherlink.com 1.10,2013-01-22 17:33:00,
2013-01-22 10:48:00,51.4,11.0,30.65,SSE,157,1.0,3.0,20,0.00,,,0.00,weatherlink.com 1.10,2013-01-22 17:48:00,
2013-01-22 11:03:00,52.4,10.0,30.65,North,352,4.0,5.0,18,0.00,,,0.00,weatherlink.com 1.10,2013-01-22 18:03:00,
2013-01-22 11:18:00,52.7,10.0,30.65,North,8,1.0,6.0,18,0.00,,,0.00,weatherlink.com 1.10,2013-01-22 18:18:00,
2013-01-22 11:33:00,53.2,13.0,30.64,NNW,331,1.0,8.0,20,0.00,,,0.00,weatherlink.com 1.10,2013-01-22 18:33:00,
2013-01-22 11:48:00,54.0,10.0,30.63,North,1,2.0,5.0,17,0.00,,,0.00,weatherlink.com 1.10,2013-01-22 18:48:00,
2013-01-22 12:03:00,55.2,11.0,30.62,North,359,5.0,7.0,17,0.00,,,0.00,weatherlink.com 1.10,2013-01-22 19:03:00,
2013-01-22 12:18:00,55.9,10.0,30.61,North,1,0.0,7.0,16,0.00,,,0.00,weatherlink.com 1.10,2013-01-22 19:18:00,
2013-01-22 12:34:00,57.0,10.0,30.60,ENE,66,2.0,5.0,15,0.00,,,0.00,weatherlink.com 1.10,2013-01-22 19:34:00,
2013-01-22 12:49:00,57.6,8.0,30.59,North,360,1.0,6.0,14,0.00,,,0.00,weatherlink.com 1.10,2013-01-22 19:49:00,
2013-01-22 13:04:00,58.4,8.0,30.58,North,4,4.0,6.0,13,0.00,,,0.00,weatherlink.com 1.10,2013-01-22 20:04:00,
2013-01-22 13:19:00,58.8,11.0,30.57,NNE,21,2.0,5.0,15,0.00,,,0.00,weatherlink.com 1.10,2013-01-22 20:19:00,
2013-01-22 13:34:00,59.8,3.0,30.57,SSE,149,1.0,4.0,10,0.00,,,0.00,weatherlink.com 1.10,2013-01-22 20:34:00,
2013-01-22 13:49:00,59.8,-2.0,30.56,NE,41,1.0,4.0,8,0.00,,,0.00,weatherlink.com 1.10,2013-01-22 20:49:00,
2013-01-22 14:04:00,59.8,3.0,30.56,ESE,103,2.0,3.0,10,0.00,,,0.00,weatherlink.com 1.10,2013-01-22 21:04:00,
2013-01-22 14:19:00,60.3,5.0,30.56,South,172,0.0,4.0,11,0.00,,,0.00,weatherlink.com 1.10,2013-01-22 21:19:00,
2013-01-22 14:34:00,59.6,16.0,30.56,SW,231,4.0,6.0,18,0.00,,,0.00,weatherlink.com 1.10,2013-01-22 21:34:00,
2013-01-22 14:49:00,58.7,16.0,30.56,WSW,244,3.0,5.0,19,0.00,,,0.00,weatherlink.com 1.10,2013-01-22 21:49:00,
2013-01-22 15:04:00,58.7,15.0,30.56,SW,235,0.0,6.0,18,0.00,,,0.00,weatherlink.com 1.10,2013-01-22 22:04:00,
2013-01-22 15:19:00,58.6,16.0,30.55,West,259,2.0,5.0,19,0.00,,,0.00,weatherlink.com 1.10,2013-01-22 22:19:00,
2013-01-22 15:34:00,59.3,14.0,30.56,WSW,247,0.0,3.0,17,0.00,,,0.00,weatherlink.com 1.10,2013-01-22 22:34:00,
2013-01-22 15:49:00,60.0,13.0,30.55,WSW,247,1.0,3.0,16,0.00,,,0.00,weatherlink.com 1.10,2013-01-22 22:49:00,
2013-01-22 16:05:00,57.9,13.0,30.56,SW,224,1.0,4.0,17,0.00,,,0.00,weatherlink.com 1.10,2013-01-22 23:05:00,
2013-01-22 16:20:00,56.9,12.0,30.55,SW,224,1.0,3.0,17,0.00,,,0.00,weatherlink.com 1.10,2013-01-22 23:20:00,
2013-01-22 16:35:00,56.6,11.0,30.55,SW,224,1.0,3.0,16,0.00,,,0.00,weatherlink.com 1.10,2013-01-22 23:35:00,
2013-01-22 16:50:00,56.9,11.0,30.55,SW,224,0.0,1.0,16,0.00,,,0.00,weatherlink.com 1.10,2013-01-22 23:50:00,
2013-01-22 17:05:00,57.7,12.0,30.55,SW,224,0.0,1.0,16,0.00,,,0.00,weatherlink.com 1.10,2013-01-23 00:05:00,
2013-01-22 17:20:00,55.1,16.0,30.55,NNE,12,0.0,3.0,21,0.00,,,0.00,weatherlink.com 1.10,2013-01-23 00:20:00,
2013-01-22 17:35:00,51.3,16.0,30.55,NNE,12,0.0,2.0,25,0.00,,,0.00,weatherlink.com 1.10,2013-01-23 00:35:00,
2013-01-22 17:50:00,48.2,18.0,30.55,NNE,12,0.0,1.0,30,0.00,,,0.00,weatherlink.com 1.10,2013-01-23 00:50:00,
2013-01-22 18:05:00,44.2,19.0,30.55,NNE,13,1.0,2.0,37,0.00,,,0.00,weatherlink.com 1.10,2013-01-23 01:05:00,
2013-01-22 18:20:00,40.9,20.0,30.56,NNE,12,2.0,2.0,44,0.00,,,0.00,weatherlink.com 1.10,2013-01-23 01:20:00,
2013-01-22 18:35:00,38.2,21.0,30.56,NNE,13,0.0,3.0,51,0.00,,,0.00,weatherlink.com 1.10,2013-01-23 01:35:00,
2013-01-22 18:50:00,36.5,20.0,30.56,NNE,13,0.0,3.0,52,0.00,,,0.00,weatherlink.com 1.10,2013-01-23 01:50:00,
2013-01-22 19:05:00,35.8,20.0,30.56,NNE,13,1.0,3.0,54,0.00,,,0.00,weatherlink.com 1.10,2013-01-23 02:05:00,
2013-01-22 19:21:00,35.3,21.0,30.56,NNE,13,1.0,2.0,56,0.00,,,0.00,weatherlink.com 1.10,2013-01-23 02:21:00,
2013-01-22 19:36:00,34.4,20.0,30.56,NNE,13,1.0,3.0,57,0.00,,,0.00,weatherlink.com 1.10,2013-01-23 02:36:00,
2013-01-22 19:51:00,34.2,20.0,30.56,NNE,12,1.0,3.0,57,0.00,,,0.00,weatherlink.com 1.10,2013-01-23 02:51:00,
2013-01-22 20:06:00,33.7,19.0,30.57,NNE,13,0.0,3.0,56,0.00,,,0.00,weatherlink.com 1.10,2013-01-23 03:06:00,
2013-01-22 20:21:00,33.0,20.0,30.57,NNE,13,1.0,2.0,58,0.00,,,0.00,weatherlink.com 1.10,2013-01-23 03:21:00,
2013-01-22 20:36:00,32.2,20.0,30.57,NNE,13,1.0,3.0,60,0.00,,,0.00,weatherlink.com 1.10,2013-01-23 03:36:00,
2013-01-22 20:51:00,31.6,19.0,30.57,NNE,13,3.0,3.0,60,0.00,,,0.00,weatherlink.com 1.10,2013-01-23 03:51:00,
2013-01-22 21:06:00,30.8,19.0,30.58,NNE,33,0.0,3.0,61,0.00,,,0.00,weatherlink.com 1.10,2013-01-23 04:06:00,
2013-01-22 21:36:00,30.7,18.0,30.59,North,360,0.0,2.0,59,0.00,,,0.00,weatherlink.com 1.10,2013-01-23 04:36:00,
2013-01-22 21:51:00,29.9,18.0,30.60,NNE,29,0.0,3.0,61,0.00,,,0.00,weatherlink.com 1.10,2013-01-23 04:51:00,
2013-01-22 22:06:00,29.4,17.0,30.60,NE,46,0.0,2.0,60,0.00,,,0.00,weatherlink.com 1.10,2013-01-23 05:06:00,
2013-01-22 22:22:00,30.5,16.0,30.61,NE,37,0.0,2.0,56,0.00,,,0.00,weatherlink.com 1.10,2013-01-23 05:22:00,
2013-01-22 22:51:00,31.0,16.0,30.60,North,10,1.0,3.0,55,0.00,,,0.00,weatherlink.com 1.10,2013-01-23 05:51:00,
2013-01-22 23:07:00,30.0,17.0,30.60,North,360,0.0,4.0,58,0.00,,,0.00,weatherlink.com 1.10,2013-01-23 06:07:00,
2013-01-22 23:22:00,29.1,17.0,30.61,North,360,1.0,2.0,62,0.00,,,0.00,weatherlink.com 1.10,2013-01-23 06:22:00,
2013-01-22 23:37:00,28.7,17.0,30.61,North,360,0.0,3.0,62,0.00,,,0.00,weatherlink.com 1.10,2013-01-23 06:37:00,
2013-01-22 23:52:00,30.5,17.0,30.60,NE,43,0.0,4.0,57,0.00,,,0.00,weatherlink.com 1.10,2013-01-23 06:52:00,